createdAt,value
2023-06-04T00:02:22.740Z,12.71
2023-06-04T00:04:49.773Z,12.68
2023-06-04T00:07:16.764Z,12.57
2023-06-04T00:09:43.899Z,12.53
2023-06-04T00:12:11.028Z,12.39
2023-06-04T00:14:38.090Z,12.44
2023-06-04T00:17:05.336Z,12.35
2023-06-04T00:19:32.313Z,12.28
2023-06-04T00:21:59.225Z,12.26
2023-06-04T00:24:26.222Z,12.36
2023-06-04T00:26:53.186Z,12.36
2023-06-04T00:29:20.123Z,12.34
2023-06-04T00:31:47.158Z,12.21
2023-06-04T00:34:14.563Z,12.16
2023-06-04T00:36:42.075Z,12.07
2023-06-04T00:39:09.016Z,12.16
2023-06-04T00:41:36.094Z,12.23
2023-06-04T00:44:03.587Z,12.20
2023-06-04T00:46:32.443Z,12.16
2023-06-04T00:48:59.909Z,12.15
2023-06-04T00:51:27.384Z,12.15
2023-06-04T00:53:54.356Z,12.19
2023-06-04T00:56:21.321Z,12.14
2023-06-04T00:58:48.624Z,11.87
2023-06-04T01:01:27.955Z,11.69
2023-06-04T01:03:56.964Z,11.45
2023-06-04T01:06:29.967Z,11.34
2023-06-04T01:08:58.876Z,11.25
2023-06-04T01:11:36.017Z,11.16
2023-06-04T01:14:04.201Z,11.05
2023-06-04T01:16:34.089Z,10.92
2023-06-04T01:19:03.817Z,10.59
2023-06-04T01:21:36.711Z,10.58
2023-06-04T01:24:08.405Z,10.34
2023-06-04T01:26:36.351Z,10.32
2023-06-04T01:29:03.726Z,10.22
2023-06-04T01:31:34.193Z,10.10
2023-06-04T01:34:01.449Z,9.82
2023-06-04T01:36:28.474Z,9.82
2023-06-04T01:38:55.785Z,-138.62
2023-06-04T01:41:22.925Z,-138.62
2023-06-04T01:43:49.874Z,10.04
2023-06-04T01:46:16.824Z,9.97
2023-06-04T01:48:44.187Z,9.93
2023-06-04T01:51:11.250Z,9.92
2023-06-04T01:53:38.294Z,9.93
2023-06-04T01:56:05.212Z,9.83
2023-06-04T01:58:33.371Z,9.68
2023-06-04T02:01:01.555Z,9.65
2023-06-04T02:03:29.190Z,9.53
2023-06-04T02:05:56.305Z,9.48
2023-06-04T02:08:26.702Z,9.52
2023-06-04T02:10:53.884Z,9.43
2023-06-04T02:13:21.084Z,9.43
2023-06-04T02:15:48.535Z,9.57
2023-06-04T02:18:18.813Z,9.52
2023-06-04T02:20:46.580Z,9.45
2023-06-04T02:23:15.099Z,9.32
2023-06-04T02:25:42.325Z,9.26
2023-06-04T02:28:09.216Z,9.19
2023-06-04T02:30:36.246Z,9.19
2023-06-04T02:33:03.264Z,9.10
2023-06-04T02:35:31.085Z,9.05
2023-06-04T02:38:01.798Z,9.07
2023-06-04T02:40:28.992Z,9.08
2023-06-04T02:42:56.489Z,8.94
2023-06-04T02:45:24.090Z,8.95
2023-06-04T02:47:51.142Z,8.93
2023-06-04T02:50:18.785Z,8.87
2023-06-04T02:52:45.826Z,8.94
2023-06-04T02:55:15.818Z,8.85
2023-06-04T02:57:46.214Z,8.87
2023-06-04T03:00:14.780Z,8.85
2023-06-04T03:02:46.268Z,8.86
2023-06-04T03:05:14.433Z,8.95
2023-06-04T03:07:43.862Z,9.02
2023-06-04T03:10:11.694Z,9.00
2023-06-04T03:12:38.984Z,9.00
2023-06-04T03:15:06.263Z,9.01
2023-06-04T03:17:33.508Z,9.04
2023-06-04T03:20:00.456Z,9.15
2023-06-04T03:22:27.724Z,9.20
2023-06-04T03:24:54.727Z,9.20
2023-06-04T03:27:21.699Z,9.17
2023-06-04T03:29:49.517Z,9.22
2023-06-04T03:32:17.615Z,9.09
2023-06-04T03:34:44.832Z,9.11
2023-06-04T03:37:11.882Z,9.12
2023-06-04T03:39:38.843Z,9.14
2023-06-04T03:42:06.539Z,9.20
2023-06-04T03:44:33.571Z,9.10
2023-06-04T03:47:00.615Z,9.22
2023-06-04T03:49:27.745Z,9.30
2023-06-04T03:51:54.812Z,9.16
2023-06-04T03:54:22.555Z,9.32
2023-06-04T03:56:49.546Z,9.36
2023-06-04T03:59:16.551Z,9.48
2023-06-04T04:01:44.831Z,9.64
2023-06-04T04:04:12.115Z,9.80
2023-06-04T04:06:39.595Z,9.94
2023-06-04T04:09:10.541Z,10.02
2023-06-04T04:11:37.480Z,10.06
2023-06-04T04:14:04.415Z,10.11
2023-06-04T04:16:31.384Z,10.19
2023-06-04T04:18:58.426Z,10.22
2023-06-04T04:21:25.969Z,10.14
2023-06-04T04:23:53.261Z,10.17
2023-06-04T04:26:20.412Z,10.15
2023-06-04T04:28:47.570Z,10.16
2023-06-04T04:31:15.447Z,10.23
2023-06-04T04:33:42.409Z,10.33
2023-06-04T04:36:13.796Z,10.36
2023-06-04T04:38:41.359Z,10.37
2023-06-04T04:41:09.750Z,10.39
2023-06-04T04:43:38.724Z,10.41
2023-06-04T04:46:06.460Z,10.27
2023-06-04T04:48:33.882Z,10.23
2023-06-04T04:51:00.869Z,10.29
2023-06-04T04:53:28.515Z,10.42
2023-06-04T04:55:55.564Z,10.49
2023-06-04T04:58:22.445Z,10.43
2023-06-04T05:00:49.482Z,10.77
2023-06-04T05:03:16.536Z,10.91
2023-06-04T05:05:44.908Z,11.05
2023-06-04T05:08:12.659Z,11.19
2023-06-04T05:10:39.581Z,11.31
2023-06-04T05:13:07.575Z,11.45
2023-06-04T05:15:34.743Z,11.61
2023-06-04T05:18:04.986Z,11.71
2023-06-04T05:20:32.075Z,11.88
2023-06-04T05:22:59.336Z,12.00
2023-06-04T05:25:28.166Z,12.04
2023-06-04T05:27:55.758Z,12.13
2023-06-04T05:30:22.905Z,12.30
2023-06-04T05:32:51.885Z,12.43
2023-06-04T05:35:18.956Z,12.55
2023-06-04T05:37:46.921Z,12.64
2023-06-04T05:40:14.730Z,12.69
2023-06-04T05:42:42.484Z,12.78
2023-06-04T05:45:10.893Z,12.97
2023-06-04T05:47:38.249Z,13.11
2023-06-04T05:50:06.065Z,13.24
2023-06-04T05:52:33.422Z,13.37
2023-06-04T05:55:00.422Z,13.55
2023-06-04T05:57:27.437Z,13.59
2023-06-04T05:59:54.312Z,13.76
2023-06-04T06:02:21.601Z,13.89
2023-06-04T06:04:48.917Z,13.86
2023-06-04T06:07:16.052Z,14.10
2023-06-04T06:09:43.001Z,14.26
2023-06-04T06:12:09.968Z,14.34
2023-06-04T06:14:37.144Z,14.49
2023-06-04T06:17:04.203Z,14.61
2023-06-04T06:19:31.242Z,14.76
2023-06-04T06:21:59.830Z,14.93
2023-06-04T06:24:27.091Z,15.05
2023-06-04T06:26:54.060Z,15.22
2023-06-04T06:29:21.454Z,15.32
2023-06-04T06:31:49.241Z,15.42
2023-06-04T06:34:16.235Z,15.59
2023-06-04T06:36:43.845Z,15.69
2023-06-04T06:39:11.592Z,15.84
2023-06-04T06:41:39.692Z,15.97
2023-06-04T06:44:06.913Z,16.13
2023-06-04T06:46:34.428Z,16.17
2023-06-04T06:49:01.805Z,16.23
2023-06-04T06:51:28.841Z,16.31
2023-06-04T06:53:55.881Z,16.44
2023-06-04T06:56:23.298Z,16.53
2023-06-04T06:58:50.292Z,16.61
2023-06-04T07:01:17.575Z,16.83
2023-06-04T07:03:44.634Z,16.91
2023-06-04T07:06:11.513Z,16.92
2023-06-04T07:08:38.524Z,17.03
2023-06-04T07:11:06.036Z,17.21
2023-06-04T07:13:36.471Z,17.28
2023-06-04T07:16:03.577Z,17.36
2023-06-04T07:18:30.869Z,17.37
2023-06-04T07:20:58.016Z,17.33
2023-06-04T07:23:25.171Z,17.48
2023-06-04T07:25:52.315Z,17.57
2023-06-04T07:28:19.294Z,17.71
2023-06-04T07:30:47.278Z,17.83
2023-06-04T07:33:14.459Z,17.94
2023-06-04T07:35:41.476Z,17.95
2023-06-04T07:38:08.473Z,18.06
2023-06-04T07:40:35.445Z,18.16
2023-06-04T07:43:02.419Z,18.23
2023-06-04T07:45:32.541Z,18.26
2023-06-04T07:48:00.909Z,18.41
2023-06-04T07:50:27.949Z,18.46
2023-06-04T07:52:54.935Z,18.54
2023-06-04T07:55:21.922Z,18.65
2023-06-04T07:57:49.141Z,18.70
2023-06-04T08:00:16.180Z,18.77
2023-06-04T08:02:43.200Z,18.89
2023-06-04T08:05:11.094Z,18.99
2023-06-04T08:07:38.118Z,19.12
2023-06-04T08:10:05.357Z,19.13
2023-06-04T08:12:32.259Z,19.33
2023-06-04T08:14:59.350Z,19.34
2023-06-04T08:17:26.326Z,19.35
2023-06-04T08:19:53.309Z,19.40
2023-06-04T08:22:20.234Z,19.43
2023-06-04T08:24:47.772Z,19.47
2023-06-04T08:27:14.752Z,19.63
2023-06-04T08:29:41.792Z,19.77
2023-06-04T08:32:09.053Z,19.76
2023-06-04T08:34:36.608Z,19.82
2023-06-04T08:37:03.645Z,19.99
2023-06-04T08:39:30.755Z,20.08
2023-06-04T08:42:00.918Z,19.99
2023-06-04T08:44:28.426Z,20.06
2023-06-04T08:46:59.963Z,20.22
2023-06-04T08:49:27.210Z,20.33
2023-06-04T08:51:54.176Z,20.50
2023-06-04T08:54:21.145Z,20.49
2023-06-04T08:56:50.072Z,20.46
2023-06-04T08:59:19.069Z,20.59
2023-06-04T09:01:46.501Z,20.57
2023-06-04T09:04:13.751Z,20.77
2023-06-04T09:06:41.047Z,20.81
2023-06-04T09:09:10.602Z,20.81
2023-06-04T09:11:40.704Z,20.74
2023-06-04T09:14:10.758Z,20.70
2023-06-04T09:16:47.894Z,20.57
2023-06-04T09:19:15.417Z,20.62
2023-06-04T09:21:48.843Z,20.69
2023-06-04T09:24:16.093Z,20.69
2023-06-04T09:26:43.112Z,20.50
2023-06-04T09:29:10.404Z,20.48
2023-06-04T09:31:38.542Z,20.55
2023-06-04T09:34:06.837Z,20.60
2023-06-04T09:36:34.910Z,20.68
2023-06-04T09:39:02.243Z,20.93
2023-06-04T09:41:29.467Z,21.02
2023-06-04T09:44:04.521Z,21.14
2023-06-04T09:46:32.161Z,21.11
2023-06-04T09:49:03.045Z,21.08
2023-06-04T09:51:30.610Z,21.07
2023-06-04T09:53:59.021Z,21.01
2023-06-04T09:56:27.666Z,21.21
2023-06-04T09:59:04.004Z,21.42
2023-06-04T10:01:31.582Z,21.41
2023-06-04T10:04:04.239Z,21.48
2023-06-04T10:06:34.600Z,21.67
2023-06-04T10:09:04.925Z,21.86
2023-06-04T10:11:53.834Z,21.97
2023-06-04T10:14:24.789Z,22.17
2023-06-04T10:16:52.874Z,22.26
2023-06-04T10:19:20.721Z,22.62
2023-06-04T10:21:48.833Z,22.85
2023-06-04T10:24:15.919Z,23.04
2023-06-04T10:26:43.683Z,23.42
2023-06-04T10:29:11.356Z,23.96
2023-06-04T10:31:38.807Z,23.93
2023-06-04T10:34:06.282Z,24.07
2023-06-04T10:36:43.071Z,24.38
2023-06-04T10:39:10.022Z,24.79
2023-06-04T10:41:37.217Z,25.03
2023-06-04T10:44:04.276Z,25.10
2023-06-04T10:46:42.110Z,25.11
2023-06-04T10:49:10.368Z,24.92
2023-06-04T10:51:40.164Z,25.29
2023-06-04T10:54:07.205Z,25.16
2023-06-04T10:56:38.628Z,25.11
2023-06-04T10:59:15.705Z,24.81
2023-06-04T11:01:42.723Z,25.21
2023-06-04T11:04:26.041Z,25.37
2023-06-04T11:07:09.845Z,25.70
2023-06-04T11:09:37.958Z,25.50
2023-06-04T11:12:08.139Z,25.70
2023-06-04T11:14:35.217Z,25.95
2023-06-04T11:17:12.419Z,26.08
2023-06-04T11:19:39.652Z,26.22
2023-06-04T11:22:07.163Z,26.53
2023-06-04T11:24:34.153Z,26.30
2023-06-04T11:27:14.690Z,26.45
2023-06-04T11:29:44.772Z,26.58
2023-06-04T11:32:21.796Z,26.64
2023-06-04T11:34:49.145Z,26.91
2023-06-04T11:37:16.130Z,26.86
2023-06-04T11:39:45.332Z,26.99
2023-06-04T11:42:12.337Z,26.65
2023-06-04T11:44:40.065Z,26.98
2023-06-04T11:47:09.075Z,26.93
2023-06-04T11:49:36.685Z,27.22
2023-06-04T11:52:03.640Z,27.64
2023-06-04T11:54:30.957Z,28.24
2023-06-04T11:56:58.413Z,28.22
2023-06-04T11:59:25.570Z,27.92
2023-06-04T12:01:52.721Z,27.51
2023-06-04T12:04:20.801Z,27.24
2023-06-04T12:06:58.401Z,28.05
2023-06-04T12:09:28.552Z,28.96
2023-06-04T12:12:13.869Z,29.21
2023-06-04T12:14:41.535Z,29.42
2023-06-04T12:17:09.429Z,29.47
2023-06-04T12:19:50.098Z,29.54
2023-06-04T12:22:17.753Z,29.10
2023-06-04T12:24:54.474Z,29.70
2023-06-04T12:27:26.691Z,29.39
2023-06-04T12:30:00.890Z,29.69
2023-06-04T12:32:28.363Z,29.71
2023-06-04T12:34:55.630Z,29.83
2023-06-04T12:37:28.683Z,29.89
2023-06-04T12:39:56.353Z,29.81
2023-06-04T12:42:24.820Z,29.31
2023-06-04T12:44:52.202Z,29.29
2023-06-04T12:47:19.405Z,29.44
2023-06-04T12:49:46.465Z,30.05
2023-06-04T12:52:17.679Z,30.66
2023-06-04T12:54:45.079Z,31.08
2023-06-04T12:57:12.667Z,31.04
2023-06-04T12:59:39.774Z,31.70
2023-06-04T13:02:07.017Z,31.44
2023-06-04T13:04:34.128Z,30.90
2023-06-04T13:07:01.138Z,30.86
2023-06-04T13:09:29.995Z,30.20
2023-06-04T13:11:57.427Z,30.40
2023-06-04T13:14:24.395Z,30.26
2023-06-04T13:16:52.969Z,31.30
2023-06-04T13:19:23.146Z,31.73
2023-06-04T13:21:50.553Z,32.14
2023-06-04T13:24:17.982Z,32.29
2023-06-04T13:26:45.102Z,32.33
2023-06-04T13:29:12.083Z,32.08
2023-06-04T13:31:40.517Z,31.86
2023-06-04T13:34:25.527Z,31.31
2023-06-04T13:36:54.521Z,30.83
2023-06-04T13:39:21.978Z,31.21
2023-06-04T13:41:49.197Z,32.00
2023-06-04T13:44:16.629Z,32.43
2023-06-04T13:46:44.118Z,32.43
2023-06-04T13:49:11.297Z,-138.62
2023-06-04T13:51:38.333Z,-138.62
2023-06-04T13:54:05.489Z,-138.62
2023-06-04T13:56:32.590Z,-138.62
2023-06-04T13:58:59.632Z,-138.62
2023-06-04T14:01:26.625Z,-138.62
2023-06-04T14:03:54.393Z,-138.62
2023-06-04T14:06:21.435Z,-138.62
2023-06-04T14:08:48.904Z,-138.62
2023-06-04T14:11:15.900Z,-138.62
2023-06-04T14:13:46.273Z,-138.62
2023-06-04T14:16:13.393Z,-138.62
2023-06-04T14:18:40.482Z,-138.62
2023-06-04T14:21:07.653Z,-138.62
2023-06-04T14:23:34.761Z,33.25
2023-06-04T14:26:02.536Z,33.03
2023-06-04T14:28:29.526Z,33.01
2023-06-04T14:30:56.531Z,33.45
2023-06-04T14:33:23.527Z,33.80
2023-06-04T14:35:50.482Z,33.99
2023-06-04T14:38:18.703Z,34.07
2023-06-04T14:40:46.679Z,32.92
2023-06-04T14:43:14.201Z,33.55
2023-06-04T14:45:41.850Z,32.62
2023-06-04T14:50:39.364Z,33.42
2023-06-04T14:53:08.707Z,32.75
2023-06-04T14:55:35.972Z,-138.62
2023-06-04T14:58:04.343Z,-138.62
2023-06-04T15:00:31.635Z,-138.62
2023-06-04T15:02:59.235Z,-138.62
2023-06-04T15:05:26.655Z,-138.62
2023-06-04T15:07:54.072Z,-138.62
2023-06-04T15:10:21.252Z,-138.62
2023-06-04T15:12:49.000Z,-138.62
2023-06-04T15:15:16.221Z,-138.62
2023-06-04T15:17:45.567Z,-138.62
2023-06-04T15:20:15.353Z,-138.62
2023-06-04T15:22:46.163Z,-138.62
2023-06-04T15:25:13.150Z,-138.62
2023-06-04T15:27:40.232Z,-138.62
2023-06-04T15:30:08.074Z,-138.62
2023-06-04T15:32:35.513Z,-138.62
2023-06-04T15:35:03.718Z,-138.62
2023-06-04T15:37:31.109Z,-138.62
2023-06-04T15:39:59.474Z,-138.62
2023-06-04T15:42:26.459Z,-138.62
2023-06-04T15:44:53.485Z,-138.62
2023-06-04T15:47:20.492Z,-138.62
2023-06-04T15:49:47.624Z,-138.62
2023-06-04T15:52:14.683Z,-138.62
2023-06-04T15:54:45.945Z,-138.62
2023-06-04T15:57:14.049Z,-138.62
2023-06-04T15:59:41.856Z,-138.62
2023-06-04T16:02:08.999Z,-138.62
2023-06-04T16:04:36.258Z,-138.62
2023-06-04T16:07:04.246Z,-138.62
2023-06-04T16:09:31.197Z,-138.62
2023-06-04T16:11:58.196Z,-138.62
2023-06-04T16:14:25.115Z,-138.62
2023-06-04T16:16:53.739Z,-138.62
2023-06-04T16:19:20.856Z,-138.62
2023-06-04T16:21:48.510Z,-138.62
2023-06-04T16:24:17.675Z,-138.62
2023-06-04T16:26:45.060Z,-138.62
2023-06-04T16:29:12.141Z,-138.62
2023-06-04T16:31:39.137Z,-138.62
2023-06-04T16:34:06.283Z,-138.62
2023-06-04T16:36:34.335Z,-138.62
2023-06-04T16:39:01.492Z,-138.62
2023-06-04T16:41:28.545Z,-138.62
2023-06-04T16:43:55.440Z,-138.62
2023-06-04T16:46:23.168Z,-138.62
2023-06-04T16:48:53.278Z,-138.62
2023-06-04T16:51:20.324Z,-138.62
2023-06-04T16:53:47.750Z,-138.62
2023-06-04T16:56:14.851Z,-138.62
2023-06-04T16:58:41.955Z,-138.62
2023-06-04T17:01:11.604Z,-138.62
2023-06-04T17:03:39.062Z,-138.62
2023-06-04T17:06:06.820Z,-138.62
2023-06-04T17:08:34.009Z,-138.62
2023-06-04T17:11:01.031Z,-138.62
2023-06-04T17:13:28.136Z,-138.62
2023-06-04T17:15:55.164Z,-138.62
2023-06-04T17:18:22.492Z,-138.62
2023-06-04T17:20:49.423Z,-138.62
2023-06-04T17:23:20.156Z,-138.62
2023-06-04T17:25:47.648Z,-138.62
2023-06-04T17:28:15.301Z,-138.62
2023-06-04T17:30:42.742Z,-138.62
2023-06-04T17:33:11.052Z,-138.62
2023-06-04T17:35:39.703Z,-138.62
2023-06-04T17:38:06.851Z,-138.62
2023-06-04T17:40:33.866Z,-138.62
2023-06-04T17:43:00.788Z,-138.62
2023-06-04T17:45:27.813Z,-138.62
2023-06-04T17:47:54.835Z,-138.62
2023-06-04T17:50:21.909Z,-138.62
2023-06-04T17:52:48.962Z,-138.62
2023-06-04T17:55:16.289Z,-138.62
2023-06-04T17:57:43.493Z,-138.62
2023-06-04T18:00:10.987Z,-138.62
2023-06-04T18:02:38.000Z,-138.62
2023-06-04T18:05:05.159Z,-138.62
2023-06-04T18:07:32.246Z,-138.62
2023-06-04T18:09:59.210Z,-138.62
2023-06-04T18:12:26.258Z,-138.62
2023-06-04T18:14:53.303Z,-138.62
2023-06-04T18:17:20.234Z,-138.62
2023-06-04T18:19:47.817Z,-138.62
2023-06-04T18:22:14.818Z,-138.62
2023-06-04T18:24:41.868Z,32.75
2023-06-04T18:27:08.870Z,24.12
2023-06-04T18:29:35.954Z,23.86
2023-06-04T18:32:02.960Z,23.60
2023-06-04T18:34:30.087Z,23.18
2023-06-04T18:36:57.974Z,23.00
2023-06-04T18:39:25.521Z,22.74
2023-06-04T18:41:55.398Z,22.57
2023-06-04T18:44:22.806Z,22.37
2023-06-04T18:46:49.871Z,22.25
2023-06-04T18:49:17.928Z,22.24
2023-06-04T18:51:44.828Z,22.16
2023-06-04T18:54:11.808Z,21.93
2023-06-04T18:56:39.846Z,21.63
2023-06-04T18:59:06.787Z,21.31
2023-06-04T19:01:33.750Z,21.23
2023-06-04T19:04:01.136Z,21.02
2023-06-04T19:06:28.168Z,20.78
2023-06-04T19:08:55.208Z,20.58
2023-06-04T19:11:24.235Z,20.61
2023-06-04T19:13:51.497Z,20.55
2023-06-04T19:16:19.194Z,20.35
2023-06-04T19:18:46.204Z,20.17
2023-06-04T19:21:13.489Z,20.00
2023-06-04T19:23:40.444Z,19.83
2023-06-04T19:26:07.793Z,19.49
2023-06-04T19:28:34.935Z,19.47
2023-06-04T19:31:02.606Z,19.32
2023-06-04T19:33:33.621Z,19.18
2023-06-04T19:36:01.568Z,19.13
2023-06-04T19:38:28.683Z,19.00
2023-06-04T19:40:55.785Z,18.95
2023-06-04T19:43:22.898Z,18.80
2023-06-04T19:45:53.436Z,18.77
2023-06-04T19:48:20.369Z,18.75
2023-06-04T19:50:49.876Z,18.45
2023-06-04T19:53:17.121Z,18.38
2023-06-04T19:55:44.354Z,18.21
2023-06-04T19:58:12.065Z,18.23
2023-06-04T20:00:39.212Z,18.16
2023-06-04T20:03:06.460Z,18.02
2023-06-04T20:05:33.503Z,17.97
2023-06-04T20:08:00.504Z,17.82
2023-06-04T20:10:27.576Z,17.67
2023-06-04T20:12:54.510Z,17.65
2023-06-04T20:15:21.906Z,17.57
2023-06-04T20:17:49.250Z,17.53
2023-06-04T20:20:19.324Z,17.39
2023-06-04T20:22:46.643Z,17.36
2023-06-04T20:25:14.140Z,17.31
2023-06-04T20:27:41.050Z,17.19
2023-06-04T20:30:08.345Z,17.03
2023-06-04T20:32:35.533Z,16.87
2023-06-04T20:35:02.784Z,16.61
2023-06-04T20:37:30.739Z,16.68
2023-06-04T20:39:57.712Z,16.55
2023-06-04T20:42:25.033Z,16.59
2023-06-04T20:44:51.939Z,16.59
2023-06-04T20:47:18.872Z,16.45
2023-06-04T20:49:45.826Z,16.45
2023-06-04T20:52:13.640Z,16.39
2023-06-04T20:54:40.560Z,16.27
2023-06-04T20:57:07.594Z,16.25
2023-06-04T20:59:34.516Z,16.03
2023-06-04T21:02:01.858Z,15.87
2023-06-04T21:04:29.895Z,15.88
2023-06-04T21:06:56.893Z,15.78
2023-06-04T21:09:23.814Z,15.83
2023-06-04T21:11:50.840Z,15.67
2023-06-04T21:14:17.758Z,15.63
2023-06-04T21:16:44.876Z,15.59
2023-06-04T21:19:12.031Z,15.74
2023-06-04T21:21:39.024Z,15.57
2023-06-04T21:24:06.125Z,15.59
2023-06-04T21:26:33.188Z,15.45
2023-06-04T21:29:00.087Z,15.42
2023-06-04T21:31:27.087Z,15.35
2023-06-04T21:33:54.002Z,15.32
2023-06-04T21:36:20.937Z,15.27
2023-06-04T21:38:48.078Z,15.13
2023-06-04T21:41:16.455Z,15.20
2023-06-04T21:43:44.036Z,15.08
2023-06-04T21:46:11.201Z,15.14
2023-06-04T21:48:38.264Z,15.07
2023-06-04T21:51:07.343Z,14.98
2023-06-04T21:53:34.560Z,15.07
2023-06-04T21:56:01.546Z,15.10
2023-06-04T21:58:28.684Z,15.13
2023-06-04T22:00:56.284Z,15.10
2023-06-04T22:03:23.478Z,15.17
2023-06-04T22:05:50.483Z,15.24
2023-06-04T22:08:17.718Z,15.21
2023-06-04T22:10:44.665Z,15.09
2023-06-04T22:13:11.663Z,15.20
2023-06-04T22:15:40.189Z,15.16
2023-06-04T22:18:07.443Z,15.02
2023-06-04T22:20:34.347Z,15.01
2023-06-04T22:23:01.573Z,14.91
2023-06-04T22:25:28.524Z,14.97
2023-06-04T22:27:55.575Z,14.89
2023-06-04T22:30:22.741Z,14.79
2023-06-04T22:32:49.719Z,14.77
2023-06-04T22:35:16.828Z,14.69
2023-06-04T22:37:44.310Z,14.71
2023-06-04T22:40:11.636Z,14.60
2023-06-04T22:42:38.689Z,14.56
2023-06-04T22:45:05.866Z,14.55
2023-06-04T22:47:32.793Z,14.50
2023-06-04T22:49:59.712Z,14.58
2023-06-04T22:52:27.150Z,14.39
2023-06-04T22:54:54.185Z,14.27
2023-06-04T22:57:21.289Z,14.27
2023-06-04T22:59:48.796Z,14.29
2023-06-04T23:02:15.705Z,14.19
2023-06-04T23:04:44.185Z,14.23
2023-06-04T23:07:11.177Z,14.27
2023-06-04T23:09:38.220Z,14.29
2023-06-04T23:12:05.248Z,14.13
2023-06-04T23:14:32.199Z,14.15
2023-06-04T23:16:59.243Z,14.18
2023-06-04T23:19:26.280Z,14.05
2023-06-04T23:21:53.278Z,13.96
2023-06-04T23:24:20.256Z,13.91
2023-06-04T23:26:47.520Z,13.90
2023-06-04T23:29:14.875Z,13.87
2023-06-04T23:31:41.846Z,13.79
2023-06-04T23:34:08.789Z,13.77
2023-06-04T23:36:35.969Z,13.75
2023-06-04T23:39:03.007Z,13.82
2023-06-04T23:41:29.941Z,13.81
2023-06-04T23:43:56.921Z,13.80
2023-06-04T23:46:23.889Z,13.72
2023-06-04T23:48:50.927Z,13.74
2023-06-04T23:51:17.957Z,13.55
2023-06-04T23:53:47.409Z,13.60
2023-06-04T23:56:14.439Z,13.54
2023-06-04T23:58:41.679Z,13.49
